Time;durP1;ratioP1;P1;durP2;ratioP2;P2;SDS_P1;SDS_P2;PMS_P1;PMS_P2;Temp;Humidity;BMP_temperature;BMP_pressure;BME280_temperature;BME280_humidity;BME280_pressure;Samples;Min_cycle;Max_cycle;Signal;HPM_P1;HPM_P2
2022/06/06 00:02:21;;;;;;;;;;;;;;;21.71;30.73;97731.13;4955811;29;1009;-76
2022/06/06 00:04:46;;;;;;;;;;;;;;;21.69;30.85;97715.81;4940198;29;977;-76
2022/06/06 00:07:11;;;;;;;;;;;;;;;21.72;30.89;97703.59;4955614;29;1971;-75
2022/06/06 00:09:37;;;;;;;;;;;;;;;21.62;31.33;97699.84;4956147;29;1003;-76
2022/06/06 00:12:03;;;;;;;;;;;;;;;21.67;30.93;97685.13;4955718;29;1071;-76
2022/06/06 00:14:29;;;;;;;;;;;;;;;21.62;31.28;97680.03;4973571;28;945;-76
2022/06/06 00:16:54;;;;;;;;;;;;;;;21.62;31.13;97684.91;4977163;28;1492;-76
2022/06/06 00:19:19;;;;;;;;;;;;;;;21.69;30.84;97682.63;4977597;28;902;-75
2022/06/06 00:21:46;;;;;;;;;;;;;;;21.69;30.78;97671.28;4977199;28;934;-76
2022/06/06 00:24:11;;;;;;;;;;;;;;;21.62;30.92;97665.88;4977371;28;982;-76
2022/06/06 00:26:37;;;;;;;;;;;;;;;21.65;30.85;97670.59;4975266;28;947;-76
2022/06/06 00:29:03;;;;;;;;;;;;;;;21.63;31.06;97673.09;4977105;28;1973;-76
2022/06/06 00:36:56;;;;;;;;;;;;;;;21.42;31.19;97657.59;4977186;28;913;-76
2022/06/06 00:39:22;;;;;;;;;;;;;;;21.49;31.14;97650.91;4974970;28;964;-75
2022/06/06 00:41:49;;;;;;;;;;;;;;;21.55;31.14;97643.44;4977396;28;915;-76
2022/06/06 00:44:16;;;;;;;;;;;;;;;21.66;31.06;97629.75;4976994;28;954;-75
2022/06/06 00:46:46;;;;;;;;;;;;;;;21.38;31.08;97624.97;4976891;28;928;-76
2022/06/06 00:49:13;;;;;;;;;;;;;;;21.54;30.96;97607.88;4955373;29;1995;-76
2022/06/06 00:51:38;;;;;;;;;;;;;;;21.69;30.52;97606.16;4936389;29;1053;-76
2022/06/06 00:54:06;;;;;;;;;;;;;;;21.73;30.36;97603.22;4936277;29;1125;-76
2022/06/06 00:56:35;;;;;;;;;;;;;;;21.55;31.14;97600.97;4936040;29;972;-76
2022/06/06 00:59:05;;;;;;;;;;;;;;;21.59;30.56;97595.97;4936317;29;1088;-76
2022/06/06 01:01:31;;;;;;;;;;;;;;;21.54;30.84;97607.88;4916927;29;1020;-75
2022/06/06 01:04:00;;;;;;;;;;;;;;;21.65;30.68;97608.31;4901605;29;938;-76
2022/06/06 01:06:25;;;;;;;;;;;;;;;21.55;30.98;97615.13;4901252;29;979;-76
2022/06/06 01:08:50;;;;;;;;;;;;;;;21.42;30.87;97622.84;4901925;29;1914;-76
2022/06/06 01:11:16;;;;;;;;;;;;;;;21.52;30.66;97638.69;4917164;29;941;-75
2022/06/06 01:13:42;;;;;;;;;;;;;;;21.58;30.57;97631.22;4916868;29;963;-76
2022/06/06 01:16:12;;;;;;;;;;;;;;;21.50;30.79;97636.31;4901220;29;1187;-75
2022/06/06 01:18:38;;;;;;;;;;;;;;;21.59;30.69;97622.25;4897859;29;989;-76
2022/06/06 01:21:27;;;;;;;;;;;;;;;21.52;31.02;97616.03;4930885;29;970;-76
2022/06/06 01:23:58;;;;;;;;;;;;;;;21.63;30.73;97622.16;4920037;29;1011;-76
2022/06/06 01:26:41;;;;;;;;;;;;;;;21.52;31.02;97618.88;4938691;29;1028;-76
2022/06/06 01:29:07;;;;;;;;;;;;;;;21.49;31.22;97622.59;4923681;29;1987;-75
2022/06/06 01:31:41;;;;;;;;;;;;;;;21.44;30.94;97621.13;4941335;29;936;-77
2022/06/06 01:34:07;;;;;;;;;;;;;;;21.46;31.15;97629.19;4958495;29;1008;-76
2022/06/06 01:36:33;;;;;;;;;;;;;;;21.62;30.86;97620.56;4958659;29;974;-76
2022/06/06 01:38:59;;;;;;;;;;;;;;;21.59;31.03;97622.25;4958616;28;928;-76
2022/06/06 01:41:47;;;;;;;;;;;;;;;21.63;30.88;97633.47;4958658;29;928;-76
2022/06/06 01:44:15;;;;;;;;;;;;;;;21.50;31.16;97641.16;4939402;29;1062;-76
2022/06/06 01:46:42;;;;;;;;;;;;;;;21.46;30.99;97640.50;4923456;29;1107;-76
2022/06/06 01:49:08;;;;;;;;;;;;;;;21.68;30.87;97640.59;4944880;29;1973;-76
2022/06/06 01:51:33;;;;;;;;;;;;;;;21.52;31.01;97638.69;4920096;29;919;-76
2022/06/06 01:53:59;;;;;;;;;;;;;;;21.69;30.71;97639.34;4920085;29;980;-76
2022/06/06 01:56:28;;;;;;;;;;;;;;;21.71;30.64;97640.50;4919826;29;994;-76
2022/06/06 01:58:54;;;;;;;;;;;;;;;21.83;30.61;97622.69;4904020;29;928;-76
2022/06/06 02:01:19;;;;;;;;;;;;;;;21.69;30.94;97628.03;4920242;29;1078;-76
2022/06/06 02:03:45;;;;;;;;;;;;;;;21.59;30.94;97635.63;4920051;29;1106;-76
2022/06/06 02:06:10;;;;;;;;;;;;;;;21.54;31.37;97636.19;4920101;29;1004;-76
2022/06/06 02:08:36;;;;;;;;;;;;;;;21.63;31.02;97639.13;4919773;29;1911;-76
2022/06/06 02:11:01;;;;;;;;;;;;;;;21.57;31.37;97641.75;4881910;29;969;-76
2022/06/06 02:13:27;;;;;;;;;;;;;;;21.51;31.46;97645.59;4881777;29;1039;-76
2022/06/06 02:15:52;;;;;;;;;;;;;;;21.65;31.21;97642.28;4882066;29;970;-76
2022/06/06 02:18:18;;;;;;;;;;;;;;;21.51;31.32;97651.25;4881896;29;1057;-76
2022/06/06 02:20:43;;;;;;;;;;;;;;;21.58;31.39;97659.53;4887721;29;967;-76
2022/06/06 02:23:09;;;;;;;;;;;;;;;21.72;31.04;97647.75;4929338;29;995;-75
2022/06/06 02:25:36;;;;;;;;;;;;;;;21.51;31.52;97656.94;4938755;29;1056;-76
2022/06/06 02:28:02;;;;;;;;;;;;;;;21.42;31.66;97662.47;4938760;29;1977;-76
2022/06/06 02:30:28;;;;;;;;;;;;;;;21.59;31.64;97649.78;4938552;29;1043;-76
2022/06/06 02:32:53;;;;;;;;;;;;;;;21.67;31.16;97642.66;4938335;29;995;-76
2022/06/06 02:35:20;;;;;;;;;;;;;;;21.51;31.60;97642.78;4938468;29;968;-76
2022/06/06 02:37:46;;;;;;;;;;;;;;;21.51;31.75;97649.22;4938318;29;1015;-75
2022/06/06 02:40:12;;;;;;;;;;;;;;;21.65;31.62;97647.94;4938219;29;1117;-76
2022/06/06 02:42:37;;;;;;;;;;;;;;;21.54;31.60;97644.69;4968788;28;992;-76
2022/06/06 02:45:04;;;;;;;;;;;;;;;21.58;31.94;97634.84;4979448;28;955;-76
2022/06/06 02:47:29;;;;;;;;;;;;;;;21.58;31.53;97625.53;4978832;28;1903;-76
2022/06/06 02:49:55;;;;;;;;;;;;;;;21.59;31.46;97616.59;4979033;28;1145;-76
2022/06/06 02:52:20;;;;;;;;;;;;;;;21.61;31.17;97602.00;4978909;28;897;-76
2022/06/06 02:54:46;;;;;;;;;;;;;;;21.56;31.30;97599.75;4979460;28;939;-76
2022/06/06 02:57:11;;;;;;;;;;;;;;;21.63;31.28;97599.50;4978766;28;920;-76
2022/06/06 02:59:37;;;;;;;;;;;;;;;21.60;31.08;97600.38;4978651;28;941;-75
2022/06/06 03:02:02;;;;;;;;;;;;;;;21.68;30.78;97604.59;4977635;28;1011;-76
2022/06/06 03:04:28;;;;;;;;;;;;;;;21.62;30.80;97626.22;4960343;28;999;-75
2022/06/06 03:06:56;;;;;;;;;;;;;;;21.62;31.06;97609.25;4978740;28;912;-76
2022/06/06 03:09:22;;;;;;;;;;;;;;;21.60;30.73;97620.22;4975760;28;1968;-76
2022/06/06 03:11:59;;;;;;;;;;;;;;;21.55;31.02;97609.47;4976149;28;1078;-75
2022/06/06 03:14:30;;;;;;;;;;;;;;;21.47;30.79;97608.13;4975975;28;922;-75
2022/06/06 03:22:46;;;;;;;;;;;;;;;21.47;30.94;97637.22;4975924;28;970;-74
2022/06/06 03:25:20;;;;;;;;;;;;;;;21.50;31.13;97624.19;4975764;28;1099;-75
2022/06/06 03:27:48;;;;;;;;;;;;;;;21.52;30.94;97628.16;4975680;28;1914;-75
2022/06/06 03:30:13;;;;;;;;;;;;;;;21.61;30.88;97629.53;4959817;28;951;-75
2022/06/06 03:32:43;;;;;;;;;;;;;;;21.60;30.79;97620.22;4975862;28;1033;-75
2022/06/06 03:35:09;;;;;;;;;;;;;;;21.55;30.93;97627.25;4959703;28;1046;-75
2022/06/06 03:37:44;;;;;;;;;;;;;;;21.62;30.46;97643.22;4975813;28;1037;-75
2022/06/06 03:40:20;;;;;;;;;;;;;;;21.50;30.81;97653.31;4925834;29;1088;-75
2022/06/06 03:42:48;;;;;;;;;;;;;;;21.59;30.88;97650.56;4953066;29;935;-75
2022/06/06 03:45:17;;;;;;;;;;;;;;;21.48;31.22;97660.66;4937083;29;1069;-75
2022/06/06 03:47:47;;;;;;;;;;;;;;;21.62;30.58;97680.03;4936064;29;1906;-75
2022/06/06 03:50:15;;;;;;;;;;;;;;;21.49;30.81;97713.97;4952850;29;1059;-75
2022/06/06 03:52:45;;;;;;;;;;;;;;;21.59;31.01;97731.88;4936873;29;964;-75
2022/06/06 03:55:13;;;;;;;;;;;;;;;21.53;31.54;97747.84;4952684;29;964;-75
2022/06/06 03:57:38;;;;;;;;;;;;;;;21.69;31.40;97764.72;4936894;29;1002;-75
2022/06/06 04:00:11;;;;;;;;;;;;;;;21.69;31.54;97767.56;4936398;29;971;-75
2022/06/06 04:02:38;;;;;;;;;;;;;;;21.77;31.85;97757.63;4936615;29;1022;-75
2022/06/06 04:05:06;;;;;;;;;;;;;;;21.74;32.11;97767.00;4936845;29;959;-75
2022/06/06 04:07:32;;;;;;;;;;;;;;;21.72;32.01;97778.00;4936602;29;1911;-75
2022/06/06 04:09:57;;;;;;;;;;;;;;;21.53;32.58;97787.47;4937251;29;1068;-77
2022/06/06 04:12:38;;;;;;;;;;;;;;;21.68;32.29;97790.69;4956567;29;948;-75
2022/06/06 04:15:18;;;;;;;;;;;;;;;21.73;32.17;97793.75;4955635;29;970;-75
2022/06/06 04:17:46;;;;;;;;;;;;;;;21.66;32.16;97795.97;4955398;29;1047;-75
2022/06/06 04:20:16;;;;;;;;;;;;;;;21.59;32.59;97785.66;4955439;29;1068;-75
2022/06/06 04:22:44;;;;;;;;;;;;;;;21.59;32.16;97782.84;4917193;29;942;-75
2022/06/06 04:25:30;;;;;;;;;;;;;;;21.49;32.24;97786.78;4917586;29;981;-75
2022/06/06 04:28:16;;;;;;;;;;;;;;;21.56;31.92;97770.41;4917181;29;1910;-75
2022/06/06 04:30:46;;;;;;;;;;;;;;;21.43;32.17;97754.63;4917572;29;960;-75
2022/06/06 04:33:17;;;;;;;;;;;;;;;21.51;31.68;97739.81;4917395;29;1235;-75
2022/06/06 04:35:55;;;;;;;;;;;;;;;21.50;31.63;97732.56;4917491;29;1155;-75
2022/06/06 04:38:23;;;;;;;;;;;;;;;21.60;31.00;97713.63;4933238;29;1136;-75
2022/06/06 04:41:07;;;;;;;;;;;;;;;21.40;31.18;97719.53;4936196;29;1032;-75
2022/06/06 04:43:33;;;;;;;;;;;;;;;21.40;31.22;97715.88;4936443;29;948;-75
2022/06/06 04:45:58;;;;;;;;;;;;;;;21.36;30.96;97715.22;4936152;29;1004;-75
2022/06/06 04:48:24;;;;;;;;;;;;;;;21.46;30.72;97714.91;4936229;29;1902;-75
2022/06/06 04:50:49;;;;;;;;;;;;;;;21.44;30.76;97711.69;4936141;29;981;-75
2022/06/06 04:53:16;;;;;;;;;;;;;;;21.69;30.24;97710.16;4935991;28;1096;-75
2022/06/06 04:55:41;;;;;;;;;;;;;;;21.38;30.41;97738.19;4976898;28;951;-75
2022/06/06 04:58:06;;;;;;;;;;;;;;;21.33;30.44;97726.19;4975751;28;914;-75
2022/06/06 05:00:35;;;;;;;;;;;;;;;21.46;30.07;97714.09;4978784;28;983;-75
2022/06/06 05:03:01;;;;;;;;;;;;;;;21.44;29.99;97693.94;4980955;28;883;-75
2022/06/06 05:05:35;;;;;;;;;;;;;;;21.49;29.93;97690.53;4980660;28;962;-75
2022/06/06 05:08:01;;;;;;;;;;;;;;;21.61;29.94;97686.94;4981097;28;1967;-75
2022/06/06 05:10:27;;;;;;;;;;;;;;;21.69;29.45;97693.16;4980527;28;906;-75
2022/06/06 05:13:12;;;;;;;;;;;;;;;21.45;29.75;97704.00;4980716;28;945;-75
2022/06/06 05:15:38;;;;;;;;;;;;;;;21.55;29.56;97705.72;4980482;28;914;-75
2022/06/06 05:18:20;;;;;;;;;;;;;;;21.62;29.68;97711.16;4979345;28;1001;-75
2022/06/06 05:20:48;;;;;;;;;;;;;;;21.46;29.73;97716.94;4980506;28;936;-75
2022/06/06 05:23:14;;;;;;;;;;;;;;;21.39;29.97;97720.75;4979174;28;1141;-75
2022/06/06 05:25:58;;;;;;;;;;;;;;;21.46;29.86;97726.22;4980270;28;1008;-75
2022/06/06 05:28:42;;;;;;;;;;;;;;;21.99;30.38;97728.59;4980457;28;1973;-75
2022/06/06 05:31:26;;;;;;;;;;;;;;;22.08;30.38;97735.19;4980462;28;1000;-75
2022/06/06 05:34:01;;;;;;;;;;;;;;;22.13;30.90;97733.06;4980093;28;1101;-75
2022/06/06 05:36:26;;;;;;;;;;;;;;;21.87;30.92;97738.72;4979300;28;957;-75
2022/06/06 05:39:21;;;;;;;;;;;;;;;21.69;30.86;97744.91;4980312;28;908;-75
2022/06/06 05:42:05;;;;;;;;;;;;;;;21.55;30.76;97742.50;4939325;29;1041;-75
2022/06/06 05:44:33;;;;;;;;;;;;;;;21.47;30.75;97739.13;4938979;29;976;-75
2022/06/06 05:47:21;;;;;;;;;;;;;;;21.50;30.86;97754.41;4939438;29;1071;-75
2022/06/06 05:50:05;;;;;;;;;;;;;;;21.45;30.48;97769.09;4845328;29;1055;-75
2022/06/06 05:52:43;;;;;;;;;;;;;;;21.40;30.81;97783.81;4845418;29;955;-75
2022/06/06 05:55:15;;;;;;;;;;;;;;;21.47;30.87;97784.41;4845655;29;992;-76
2022/06/06 05:57:40;;;;;;;;;;;;;;;21.78;30.75;97796.00;4827280;29;1015;-76
2022/06/06 06:00:06;;;;;;;;;;;;;;;21.99;30.04;97805.88;4827079;29;978;-77
2022/06/06 06:02:43;;;;;;;;;;;;;;;21.81;30.31;97814.94;4826799;29;1020;-76
2022/06/06 06:05:20;;;;;;;;;;;;;;;21.90;30.29;97828.44;4826972;29;900;-77
2022/06/06 06:08:06;;;;;;;;;;;;;;;22.02;30.18;97829.69;4826897;29;1982;-73
2022/06/06 06:10:44;;;;;;;;;;;;;;;22.45;32.21;97808.53;4825835;29;1174;-72
2022/06/06 06:13:30;;;;;;;;;;;;;;;22.95;34.11;97798.31;4808895;29;1011;-75
2022/06/06 06:15:56;;;;;;;;;;;;;;;23.35;34.55;97804.97;4772462;30;1140;-72
2022/06/06 06:18:24;;;;;;;;;;;;;;;23.33;34.94;97813.16;4757146;30;1165;-75
2022/06/06 06:21:01;;;;;;;;;;;;;;;23.77;34.55;97810.31;4737266;30;965;-75
2022/06/06 06:23:27;;;;;;;;;;;;;;;23.58;35.24;97811.44;4736962;30;1087;-73
2022/06/06 06:25:53;;;;;;;;;;;;;;;23.85;35.78;97808.78;4704609;30;992;-72
2022/06/06 06:28:18;;;;;;;;;;;;;;;24.17;35.17;97801.06;4719532;30;1995;-73
2022/06/06 06:30:54;;;;;;;;;;;;;;;24.59;34.32;97792.03;4719703;30;1031;-77
2022/06/06 06:33:24;;;;;;;;;;;;;;;24.55;34.07;97788.56;4705396;30;1014;-73
2022/06/06 06:35:50;;;;;;;;;;;;;;;24.61;34.20;97789.53;4712397;30;1108;-76
2022/06/06 06:38:24;;;;;;;;;;;;;;;24.68;34.68;97800.59;4720096;30;1043;-74
2022/06/06 06:41:12;;;;;;;;;;;;;;;24.60;34.15;97793.63;4705461;30;1030;-76
2022/06/06 06:43:47;;;;;;;;;;;;;;;24.56;34.21;97793.00;4711929;30;1068;-73
2022/06/06 06:46:33;;;;;;;;;;;;;;;24.38;34.99;97800.22;4737408;30;1152;-70
2022/06/06 06:49:13;;;;;;;;;;;;;;;24.20;35.41;97797.28;4736661;30;1916;-72
2022/06/06 06:51:57;;;;;;;;;;;;;;;24.29;34.83;97785.91;4736696;30;982;-71
2022/06/06 06:54:27;;;;;;;;;;;;;;;24.40;34.38;97797.69;4762682;30;1073;-78
2022/06/06 06:57:04;;;;;;;;;;;;;;;24.32;33.10;97792.75;4839794;29;976;-79
2022/06/06 06:59:48;;;;;;;;;;;;;;;24.22;32.49;97791.13;4843989;29;990;-79
2022/06/06 07:10:52;;;;;;;;;;;;;;;23.51;31.46;97794.66;4896431;29;1328;-76
2022/06/06 07:13:20;;;;;;;;;;;;;;;23.97;30.49;97797.81;4907168;29;1803;-78
2022/06/06 07:15:48;;;;;;;;;;;;;;;23.84;30.14;97803.59;4902540;29;1840;-78
2022/06/06 07:18:14;;;;;;;;;;;;;;;23.81;30.03;97815.88;4907401;29;1374;-79
2022/06/06 07:20:40;;;;;;;;;;;;;;;23.83;29.91;97817.00;4927409;28;1546;-78
2022/06/06 07:23:11;;;;;;;;;;;;;;;23.62;29.99;97817.75;4965579;28;1486;-78
2022/06/06 07:25:40;;;;;;;;;;;;;;;23.51;29.77;97828.75;4948453;28;1904;-79
2022/06/06 07:28:06;;;;;;;;;;;;;;;23.66;29.65;97829.81;4961044;28;1899;-78
2022/06/06 07:30:33;;;;;;;;;;;;;;;23.61;29.56;97831.19;4971310;28;1257;-80
2022/06/06 07:33:13;;;;;;;;;;;;;;;23.46;29.66;97829.34;4960017;28;991;-78
2022/06/06 07:35:44;;;;;;;;;;;;;;;23.61;29.31;97836.06;4956043;29;1009;-77
2022/06/06 07:38:48;;;;;;;;;;;;;;;23.38;29.64;97826.75;4955934;29;941;-79
2022/06/06 07:41:16;;;;;;;;;;;;;;;23.17;30.00;97833.22;4880533;29;1289;-77
2022/06/06 07:43:50;;;;;;;;;;;;;;;23.74;29.26;97842.50;5093688;27;1357;-77
2022/06/06 07:46:38;;;;;;;;;;;;;;;23.63;29.40;97842.13;5110889;28;1040;-76
2022/06/06 07:49:27;;;;;;;;;;;;;;;23.59;29.37;97849.94;5090336;28;1052;-77
2022/06/06 07:51:57;;;;;;;;;;;;;;;23.50;29.01;97855.56;5022028;28;1623;-78
2022/06/06 07:54:27;;;;;;;;;;;;;;;23.48;29.08;97858.06;5004616;28;1387;-76
2022/06/06 07:56:59;;;;;;;;;;;;;;;23.46;29.26;97854.88;4981722;28;1496;-77
2022/06/06 07:59:27;;;;;;;;;;;;;;;23.49;28.92;97843.41;4925042;29;1549;-79
2022/06/06 08:01:55;;;;;;;;;;;;;;;23.33;29.33;97857.78;4922400;29;1974;-74
2022/06/06 08:04:39;;;;;;;;;;;;;;;23.42;30.39;97860.72;4923014;29;1520;-71
2022/06/06 08:07:07;;;;;;;;;;;;;;;23.68;31.65;97861.41;4923314;29;1506;-73
2022/06/06 08:09:40;;;;;;;;;;;;;;;24.00;32.29;97859.41;4917044;29;1500;-71
2022/06/06 08:12:35;;;;;;;;;;;;;;;23.91;34.05;97860.13;4898531;29;1032;-71
2022/06/06 08:15:08;;;;;;;;;;;;;;;23.98;34.53;97867.59;4857984;29;1099;-71
2022/06/06 08:17:33;;;;;;;;;;;;;;;23.59;35.70;97861.31;4842576;29;1023;-73
2022/06/06 08:20:05;;;;;;;;;;;;;;;23.55;36.77;97869.94;4849284;29;1061;-68
2022/06/06 08:22:30;;;;;;;;;;;;;;;23.99;36.16;97860.66;4876232;29;1899;-73
2022/06/06 08:24:57;;;;;;;;;;;;;;;24.19;35.62;97866.78;4876275;29;1074;-73
2022/06/06 08:27:23;;;;;;;;;;;;;;;24.24;35.34;97871.03;4868145;29;994;-72
2022/06/06 08:29:48;;;;;;;;;;;;;;;24.08;36.00;97866.38;4899609;29;1316;-67
2022/06/06 08:32:14;;;;;;;;;;;;;;;24.56;34.58;97866.97;4951716;28;1022;-73
2022/06/06 08:34:39;;;;;;;;;;;;;;;24.40;35.26;97860.28;4971597;28;1019;-69
2022/06/06 08:37:18;;;;;;;;;;;;;;;24.28;35.32;97863.97;4971509;28;1051;-70
2022/06/06 08:39:47;;;;;;;;;;;;;;;24.24;34.98;97860.47;4969498;28;2099;-70
2022/06/06 08:42:25;;;;;;;;;;;;;;;24.57;34.98;97854.31;4949285;28;1986;-72
2022/06/06 08:45:10;;;;;;;;;;;;;;;24.85;34.11;97850.28;4951835;28;2003;-72
2022/06/06 08:47:39;;;;;;;;;;;;;;;24.56;34.92;97862.06;4908473;29;1142;-70
2022/06/06 08:53:19;;;;;;;;;;;;;;;24.21;36.00;97858.56;4978583;28;2155;-69
2022/06/06 08:55:44;;;;;;;;;;;;;;;24.27;35.67;97856.69;4956982;29;1907;-68
2022/06/06 08:58:16;;;;;;;;;;;;;;;24.02;35.63;97857.66;4958078;29;1088;-69
2022/06/06 09:01:00;;;;;;;;;;;;;;;23.74;36.37;97859.56;4958039;29;972;-71
2022/06/06 09:03:31;;;;;;;;;;;;;;;24.41;35.87;97856.16;4958038;29;1915;-69
2022/06/06 09:06:04;;;;;;;;;;;;;;;24.56;35.04;97862.06;4976362;28;1055;-66
2022/06/06 09:08:48;;;;;;;;;;;;;;;24.01;35.69;97855.31;4993259;28;1825;-72
2022/06/06 09:11:17;;;;;;;;;;;;;;;24.27;35.76;97862.38;4977242;28;1014;-72
2022/06/06 09:13:48;;;;;;;;;;;;;;;24.27;35.38;97868.06;5004875;28;1017;-70
2022/06/06 09:16:35;;;;;;;;;;;;;;;24.62;34.46;97871.56;5015598;28;2084;-74
2022/06/06 09:19:09;;;;;;;;;;;;;;;24.53;34.66;97882.13;5032858;28;1097;-74
2022/06/06 09:21:34;;;;;;;;;;;;;;;24.26;35.52;97875.03;5016906;28;1891;-71
2022/06/06 09:24:00;;;;;;;;;;;;;;;24.25;34.91;97876.28;5025446;28;923;-74
2022/06/06 09:26:25;;;;;;;;;;;;;;;23.89;34.40;97877.66;5065496;28;1496;-74
2022/06/06 09:29:09;;;;;;;;;;;;;;;24.06;33.45;97866.06;5078462;28;1812;-77
2022/06/06 09:31:40;;;;;;;;;;;;;;;23.90;33.18;97856.50;5077114;28;1454;-76
2022/06/06 09:34:14;;;;;;;;;;;;;;;23.83;32.38;97862.47;5111553;28;992;-76
2022/06/06 09:36:58;;;;;;;;;;;;;;;23.69;32.44;97863.00;5117011;28;1089;-76
2022/06/06 09:39:26;;;;;;;;;;;;;;;23.77;31.56;97854.97;5116738;28;967;-76
2022/06/06 09:41:57;;;;;;;;;;;;;;;23.82;31.27;97843.81;5116604;28;1966;-75
2022/06/06 09:44:23;;;;;;;;;;;;;;;23.74;31.09;97839.66;5075722;28;1498;-76
2022/06/06 09:46:59;;;;;;;;;;;;;;;23.63;31.10;97848.59;5076208;28;940;-75
2022/06/06 09:49:24;;;;;;;;;;;;;;;23.64;30.80;97838.81;5035693;28;957;-75
2022/06/06 09:52:08;;;;;;;;;;;;;;;23.69;30.65;97845.94;4996457;28;1386;-75
2022/06/06 10:00:36;;;;;;;;;;;;;;;23.46;30.39;97837.84;4996606;28;928;-76
2022/06/06 10:03:17;;;;;;;;;;;;;;;23.55;30.09;97830.19;4979950;28;1902;-75
2022/06/06 10:06:00;;;;;;;;;;;;;;;23.49;30.23;97837.72;4959511;28;1017;-75
2022/06/06 10:08:26;;;;;;;;;;;;;;;23.44;29.80;97837.53;4945016;28;989;-75
2022/06/06 10:10:54;;;;;;;;;;;;;;;23.47;30.01;97836.63;4938507;29;1003;-76
2022/06/06 10:13:34;;;;;;;;;;;;;;;23.49;29.69;97839.78;4937904;29;952;-75
2022/06/06 10:16:11;;;;;;;;;;;;;;;23.38;29.64;97840.97;4966618;28;1995;-76
2022/06/06 10:18:39;;;;;;;;;;;;;;;23.51;29.29;97837.25;4975693;28;900;-75
2022/06/06 10:21:22;;;;;;;;;;;;;;;23.39;29.67;97828.34;5027661;28;952;-75
2022/06/06 10:23:54;;;;;;;;;;;;;;;23.45;29.29;97824.91;5035654;28;1898;-75
2022/06/06 10:26:46;;;;;;;;;;;;;;;23.51;29.24;97832.38;5057532;28;1242;-76
2022/06/06 10:29:18;;;;;;;;;;;;;;;23.32;29.52;97827.81;5014999;28;1594;-76
2022/06/06 10:31:44;;;;;;;;;;;;;;;23.37;29.41;97824.41;5032171;28;1693;-75
2022/06/06 10:34:25;;;;;;;;;;;;;;;23.55;29.30;97823.72;5020031;28;1576;-75
2022/06/06 10:37:02;;;;;;;;;;;;;;;23.38;29.56;97823.94;5015629;28;999;-70
2022/06/06 10:39:49;;;;;;;;;;;;;;;23.43;30.31;97821.75;5040393;28;1423;-80
2022/06/06 10:42:23;;;;;;;;;;;;;;;23.37;30.29;97819.50;5001775;28;1961;-80
2022/06/06 10:45:15;;;;;;;;;;;;;;;23.38;30.38;97814.63;4999278;28;1313;-80
2022/06/06 10:47:40;;;;;;;;;;;;;;;23.42;30.26;97814.50;4964122;28;1336;-80
2022/06/06 10:50:05;;;;;;;;;;;;;;;23.45;30.04;97820.03;4963467;29;1300;-78
2022/06/06 10:52:35;;;;;;;;;;;;;;;23.52;29.92;97824.63;4939733;28;1569;-79
2022/06/06 10:55:00;;;;;;;;;;;;;;;23.46;29.92;97813.09;4964484;29;992;-81
2022/06/06 10:57:28;;;;;;;;;;;;;;;23.46;30.18;97809.44;4964320;29;1297;-80
2022/06/06 11:00:05;;;;;;;;;;;;;;;23.41;30.12;97808.00;4963644;28;1633;-81
2022/06/06 11:02:43;;;;;;;;;;;;;;;23.32;30.18;97805.91;4947814;29;1974;-79
2022/06/06 11:05:11;;;;;;;;;;;;;;;23.31;30.01;97812.84;4962809;28;1334;-81
2022/06/06 11:07:38;;;;;;;;;;;;;;;23.37;29.98;97813.81;4983745;28;1580;-79
2022/06/06 11:10:06;;;;;;;;;;;;;;;23.37;30.17;97813.81;4981218;28;1724;-79
2022/06/06 11:12:34;;;;;;;;;;;;;;;23.48;30.02;97824.00;4991981;28;1547;-80
2022/06/06 11:15:00;;;;;;;;;;;;;;;23.48;29.90;97819.09;5021386;28;1600;-79
2022/06/06 11:17:31;;;;;;;;;;;;;;;23.44;30.02;97823.34;5003033;28;1489;-80
2022/06/06 11:20:15;;;;;;;;;;;;;;;23.24;30.11;97818.75;5000474;28;1578;-81
2022/06/06 11:22:48;;;;;;;;;;;;;;;23.57;30.27;97826.88;4994460;28;1911;-79
2022/06/06 11:25:15;;;;;;;;;;;;;;;23.47;30.19;97825.25;5045662;28;1507;-76
2022/06/06 11:27:59;;;;;;;;;;;;;;;23.38;30.50;97823.94;5042951;28;1537;-78
2022/06/06 11:30:24;;;;;;;;;;;;;;;23.40;30.60;97818.56;5052532;28;1592;-71
2022/06/06 11:32:50;;;;;;;;;;;;;;;23.29;31.00;97818.16;5086086;28;1591;-71
2022/06/06 11:35:24;;;;;;;;;;;;;;;23.21;31.02;97816.84;5053117;28;1534;-73
2022/06/06 11:37:54;;;;;;;;;;;;;;;23.01;31.76;97813.53;5050451;28;1444;-72
2022/06/06 11:40:38;;;;;;;;;;;;;;;23.24;31.51;97806.63;5036387;28;1546;-72
2022/06/06 11:43:22;;;;;;;;;;;;;;;23.19;31.69;97813.66;5052060;28;2002;-72
2022/06/06 11:45:59;;;;;;;;;;;;;;;23.28;31.87;97813.75;5053178;28;986;-72
2022/06/06 11:48:30;;;;;;;;;;;;;;;23.20;31.86;97806.72;5053301;28;1616;-73
2022/06/06 11:51:10;;;;;;;;;;;;;;;23.16;31.83;97802.44;5102615;28;1510;-72
2022/06/06 11:53:41;;;;;;;;;;;;;;;23.43;32.09;97804.72;5104327;28;1583;-73
2022/06/06 11:56:29;;;;;;;;;;;;;;;23.60;31.59;97797.56;5102083;28;1477;-76
2022/06/06 11:58:56;;;;;;;;;;;;;;;23.32;32.38;97788.88;5102769;28;1508;-74
2022/06/06 12:01:24;;;;;;;;;;;;;;;23.27;32.04;97786.63;5102007;28;1496;-75
2022/06/06 12:03:59;;;;;;;;;;;;;;;23.62;31.55;97795.88;5102380;28;1913;-71
2022/06/06 12:06:33;;;;;;;;;;;;;;;23.69;31.58;97794.03;5101371;28;1559;-72
2022/06/06 12:09:05;;;;;;;;;;;;;;;23.71;31.06;97805.72;5078833;28;1482;-72
2022/06/06 12:11:33;;;;;;;;;;;;;;;23.78;31.10;97797.72;5053003;28;968;-71
2022/06/06 12:14:05;;;;;;;;;;;;;;;23.72;31.18;97805.22;5052975;28;1057;-72
2022/06/06 12:16:49;;;;;;;;;;;;;;;23.73;31.12;97789.78;5052789;28;982;-73
2022/06/06 12:19:23;;;;;;;;;;;;;;;23.52;31.42;97801.91;5052474;28;959;-77
2022/06/06 12:22:07;;;;;;;;;;;;;;;23.29;31.58;97801.13;5035356;28;1902;-77
2022/06/06 12:24:51;;;;;;;;;;;;;;;22.91;31.60;97806.19;5013461;28;949;-77
2022/06/06 12:27:19;;;;;;;;;;;;;;;23.06;31.44;97798.75;5014413;28;966;-77
2022/06/06 12:30:03;;;;;;;;;;;;;;;23.17;31.20;97799.16;5024455;28;1084;-76
2022/06/06 12:32:42;;;;;;;;;;;;;;;23.14;30.86;97792.34;5037381;28;971;-77
2022/06/06 12:35:10;;;;;;;;;;;;;;;23.04;31.04;97804.06;5053828;28;1091;-76
2022/06/06 12:37:41;;;;;;;;;;;;;;;23.08;30.90;97807.59;5038392;28;922;-78
2022/06/06 12:40:21;;;;;;;;;;;;;;;22.99;30.96;97807.50;5038234;28;1040;-77
2022/06/06 12:42:49;;;;;;;;;;;;;;;22.92;30.89;97811.38;5076162;28;1980;-79
2022/06/06 12:45:18;;;;;;;;;;;;;;;23.20;31.28;97803.91;5058884;28;985;-69
2022/06/06 12:47:46;;;;;;;;;;;;;;;23.52;32.81;97799.06;5058995;28;915;-71
2022/06/06 12:50:23;;;;;;;;;;;;;;;23.39;32.45;97804.84;5058941;28;946;-75
2022/06/06 12:53:08;;;;;;;;;;;;;;;23.12;32.58;97799.75;5058486;28;1073;-75
2022/06/06 12:55:34;;;;;;;;;;;;;;;23.14;31.93;97805.75;5058729;28;967;-75
2022/06/06 12:58:18;;;;;;;;;;;;;;;23.09;31.84;97809.97;5058606;28;909;-74
2022/06/06 13:03:31;;;;;;;;;;;;;;;23.08;31.37;97807.59;5085773;28;1910;-75
2022/06/06 13:05:57;;;;;;;;;;;;;;;22.93;31.38;97812.19;5058326;28;983;-75
2022/06/06 13:08:28;;;;;;;;;;;;;;;22.92;30.86;97805.72;5058065;28;1016;-75
2022/06/06 13:11:13;;;;;;;;;;;;;;;23.01;30.76;97813.53;5090765;28;900;-75
2022/06/06 13:13:54;;;;;;;;;;;;;;;22.92;30.46;97804.94;5075455;28;1003;-75
2022/06/06 13:16:26;;;;;;;;;;;;;;;22.83;30.79;97812.06;5058805;28;984;-75
2022/06/06 13:19:10;;;;;;;;;;;;;;;22.91;30.40;97803.34;5035363;28;1045;-75
2022/06/06 13:21:55;;;;;;;;;;;;;;;22.84;30.31;97810.00;5055245;28;1883;-75
2022/06/06 13:24:42;;;;;;;;;;;;;;;22.65;30.38;97817.56;5055795;28;985;-75
2022/06/06 13:27:18;;;;;;;;;;;;;;;22.69;30.37;97815.41;5055418;28;970;-75
2022/06/06 13:29:46;;;;;;;;;;;;;;;22.80;29.84;97810.16;5035465;28;951;-75
2022/06/06 13:32:14;;;;;;;;;;;;;;;22.65;30.19;97808.25;5035116;28;992;-75
2022/06/06 13:34:58;;;;;;;;;;;;;;;22.65;30.23;97814.72;4995688;28;982;-75
2022/06/06 13:37:43;;;;;;;;;;;;;;;22.56;29.91;97806.13;4995875;28;923;-75
2022/06/06 13:40:12;;;;;;;;;;;;;;;22.61;29.80;97777.19;4956927;28;1560;-75
2022/06/06 13:42:40;;;;;;;;;;;;;;;22.61;30.08;97809.16;4975945;28;1915;-75
2022/06/06 13:45:24;;;;;;;;;;;;;;;22.49;30.09;97806.38;4975988;28;986;-75
2022/06/06 13:47:53;;;;;;;;;;;;;;;22.59;30.05;97808.06;4995457;28;1001;-75
2022/06/06 13:50:37;;;;;;;;;;;;;;;22.61;30.03;97799.88;4958219;28;1044;-74
2022/06/06 13:53:16;;;;;;;;;;;;;;;22.70;29.68;97799.97;4931776;29;932;-75
2022/06/06 13:55:42;;;;;;;;;;;;;;;22.72;29.60;97802.34;4921931;29;939;-75
2022/06/06 13:58:10;;;;;;;;;;;;;;;22.52;30.20;97799.75;4937433;29;1022;-75